sensor_id;sensor_type;location;lat;lon;timestamp;P1;durP1;ratioP1;P2;durP2;ratioP2
79338;SDS011;74181;41.704;44.786;2024-01-06T00:02:06;1.70;;;0.60;;
79338;SDS011;74181;41.704;44.786;2024-01-06T00:04:32;2.22;;;0.70;;
79338;SDS011;74181;41.704;44.786;2024-01-06T00:06:58;1.60;;;0.60;;
79338;SDS011;74181;41.704;44.786;2024-01-06T00:09:24;1.88;;;0.57;;
79338;SDS011;74181;41.704;44.786;2024-01-06T00:11:51;4.20;;;0.80;;
79338;SDS011;74181;41.704;44.786;2024-01-06T00:14:17;2.43;;;0.70;;
79338;SDS011;74181;41.704;44.786;2024-01-06T00:16:43;2.67;;;0.70;;
79338;SDS011;74181;41.704;44.786;2024-01-06T00:19:09;3.00;;;0.70;;
79338;SDS011;74181;41.704;44.786;2024-01-06T00:21:35;2.25;;;0.70;;
79338;SDS011;74181;41.704;44.786;2024-01-06T00:24:01;2.05;;;0.70;;
79338;SDS011;74181;41.704;44.786;2024-01-06T00:26:28;3.17;;;0.77;;
79338;SDS011;74181;41.704;44.786;2024-01-06T00:28:54;2.45;;;0.80;;
79338;SDS011;74181;41.704;44.786;2024-01-06T00:31:20;2.17;;;0.70;;
79338;SDS011;74181;41.704;44.786;2024-01-06T00:33:46;2.00;;;0.63;;
79338;SDS011;74181;41.704;44.786;2024-01-06T00:36:12;2.90;;;0.90;;
79338;SDS011;74181;41.704;44.786;2024-01-06T00:38:38;2.97;;;0.80;;
79338;SDS011;74181;41.704;44.786;2024-01-06T00:41:04;2.67;;;0.90;;
79338;SDS011;74181;41.704;44.786;2024-01-06T00:43:30;2.28;;;0.80;;
79338;SDS011;74181;41.704;44.786;2024-01-06T00:45:57;2.65;;;0.88;;
79338;SDS011;74181;41.704;44.786;2024-01-06T00:48:23;1.95;;;0.80;;
79338;SDS011;74181;41.704;44.786;2024-01-06T00:50:49;2.23;;;0.80;;
79338;SDS011;74181;41.704;44.786;2024-01-06T00:53:15;2.22;;;0.90;;
79338;SDS011;74181;41.704;44.786;2024-01-06T00:55:41;2.33;;;0.70;;
79338;SDS011;74181;41.704;44.786;2024-01-06T00:58:07;2.42;;;0.85;;
79338;SDS011;74181;41.704;44.786;2024-01-06T01:00:34;2.20;;;0.70;;
79338;SDS011;74181;41.704;44.786;2024-01-06T01:03:00;2.90;;;1.13;;
79338;SDS011;74181;41.704;44.786;2024-01-06T01:05:26;2.70;;;0.70;;
79338;SDS011;74181;41.704;44.786;2024-01-06T01:07:52;2.17;;;0.75;;
79338;SDS011;74181;41.704;44.786;2024-01-06T01:10:18;2.67;;;0.80;;
79338;SDS011;74181;41.704;44.786;2024-01-06T01:12:44;2.40;;;0.75;;
79338;SDS011;74181;41.704;44.786;2024-01-06T01:15:10;2.10;;;0.70;;
79338;SDS011;74181;41.704;44.786;2024-01-06T01:17:36;1.92;;;0.70;;
79338;SDS011;74181;41.704;44.786;2024-01-06T01:20:03;2.08;;;0.80;;
79338;SDS011;74181;41.704;44.786;2024-01-06T01:22:30;2.20;;;0.70;;
79338;SDS011;74181;41.704;44.786;2024-01-06T01:24:56;2.30;;;0.77;;
79338;SDS011;74181;41.704;44.786;2024-01-06T01:27:22;1.93;;;0.70;;
79338;SDS011;74181;41.704;44.786;2024-01-06T01:29:49;2.65;;;0.80;;
79338;SDS011;74181;41.704;44.786;2024-01-06T01:32:18;2.00;;;0.70;;
79338;SDS011;74181;41.704;44.786;2024-01-06T01:34:45;2.00;;;0.70;;
79338;SDS011;74181;41.704;44.786;2024-01-06T01:37:11;1.80;;;0.70;;
79338;SDS011;74181;41.704;44.786;2024-01-06T01:39:37;2.23;;;0.67;;
79338;SDS011;74181;41.704;44.786;2024-01-06T01:42:03;2.70;;;0.80;;
79338;SDS011;74181;41.704;44.786;2024-01-06T01:44:29;1.90;;;0.60;;
79338;SDS011;74181;41.704;44.786;2024-01-06T01:46:55;2.10;;;0.70;;
79338;SDS011;74181;41.704;44.786;2024-01-06T01:49:22;2.65;;;0.80;;
79338;SDS011;74181;41.704;44.786;2024-01-06T01:51:48;2.20;;;0.80;;
79338;SDS011;74181;41.704;44.786;2024-01-06T01:54:15;2.65;;;0.80;;
79338;SDS011;74181;41.704;44.786;2024-01-06T01:56:41;3.03;;;0.80;;
79338;SDS011;74181;41.704;44.786;2024-01-06T01:59:11;2.10;;;0.80;;
79338;SDS011;74181;41.704;44.786;2024-01-06T02:01:42;2.03;;;0.80;;
79338;SDS011;74181;41.704;44.786;2024-01-06T02:04:08;2.00;;;0.60;;
79338;SDS011;74181;41.704;44.786;2024-01-06T02:06:35;2.47;;;0.80;;
79338;SDS011;74181;41.704;44.786;2024-01-06T02:09:01;2.17;;;0.80;;
79338;SDS011;74181;41.704;44.786;2024-01-06T02:11:27;3.85;;;0.80;;
79338;SDS011;74181;41.704;44.786;2024-01-06T02:13:54;2.00;;;0.80;;
79338;SDS011;74181;41.704;44.786;2024-01-06T02:16:20;2.80;;;0.90;;
79338;SDS011;74181;41.704;44.786;2024-01-06T02:18:47;2.10;;;0.82;;
79338;SDS011;74181;41.704;44.786;2024-01-06T02:21:13;2.30;;;0.75;;
79338;SDS011;74181;41.704;44.786;2024-01-06T02:23:39;1.88;;;0.73;;
79338;SDS011;74181;41.704;44.786;2024-01-06T02:26:05;2.47;;;0.80;;
79338;SDS011;74181;41.704;44.786;2024-01-06T02:28:31;1.97;;;0.67;;
79338;SDS011;74181;41.704;44.786;2024-01-06T02:30:57;2.33;;;0.60;;
79338;SDS011;74181;41.704;44.786;2024-01-06T02:33:23;1.90;;;0.70;;
79338;SDS011;74181;41.704;44.786;2024-01-06T02:35:50;2.28;;;1.02;;
79338;SDS011;74181;41.704;44.786;2024-01-06T02:38:16;2.58;;;0.73;;
79338;SDS011;74181;41.704;44.786;2024-01-06T02:40:43;2.00;;;0.70;;
79338;SDS011;74181;41.704;44.786;2024-01-06T02:43:09;2.15;;;0.70;;
79338;SDS011;74181;41.704;44.786;2024-01-06T02:45:35;2.20;;;0.70;;
79338;SDS011;74181;41.704;44.786;2024-01-06T02:48:02;1.70;;;0.60;;
79338;SDS011;74181;41.704;44.786;2024-01-06T02:50:28;2.50;;;0.60;;
79338;SDS011;74181;41.704;44.786;2024-01-06T02:52:54;1.70;;;0.50;;
79338;SDS011;74181;41.704;44.786;2024-01-06T02:55:20;1.50;;;0.50;;
79338;SDS011;74181;41.704;44.786;2024-01-06T02:57:46;1.90;;;0.60;;
79338;SDS011;74181;41.704;44.786;2024-01-06T03:00:12;1.70;;;0.50;;
79338;SDS011;74181;41.704;44.786;2024-01-06T03:02:39;1.52;;;0.50;;
79338;SDS011;74181;41.704;44.786;2024-01-06T03:05:07;1.97;;;0.50;;
79338;SDS011;74181;41.704;44.786;2024-01-06T03:07:34;1.85;;;0.50;;
79338;SDS011;74181;41.704;44.786;2024-01-06T03:10:01;2.25;;;0.60;;
79338;SDS011;74181;41.704;44.786;2024-01-06T03:12:31;1.75;;;0.50;;
79338;SDS011;74181;41.704;44.786;2024-01-06T03:14:57;2.00;;;0.60;;
79338;SDS011;74181;41.704;44.786;2024-01-06T03:17:24;1.50;;;0.50;;
79338;SDS011;74181;41.704;44.786;2024-01-06T03:19:50;1.88;;;0.50;;
79338;SDS011;74181;41.704;44.786;2024-01-06T03:22:17;1.80;;;0.60;;
79338;SDS011;74181;41.704;44.786;2024-01-06T03:24:43;1.25;;;0.40;;
79338;SDS011;74181;41.704;44.786;2024-01-06T03:27:09;2.33;;;0.60;;
79338;SDS011;74181;41.704;44.786;2024-01-06T03:29:35;1.70;;;0.60;;
79338;SDS011;74181;41.704;44.786;2024-01-06T03:32:02;1.95;;;0.55;;
79338;SDS011;74181;41.704;44.786;2024-01-06T03:34:28;2.15;;;0.60;;
79338;SDS011;74181;41.704;44.786;2024-01-06T03:36:54;1.60;;;0.57;;
79338;SDS011;74181;41.704;44.786;2024-01-06T03:39:20;3.00;;;0.60;;
79338;SDS011;74181;41.704;44.786;2024-01-06T03:41:47;1.73;;;0.50;;
79338;SDS011;74181;41.704;44.786;2024-01-06T03:44:14;1.77;;;0.45;;
79338;SDS011;74181;41.704;44.786;2024-01-06T03:46:40;1.50;;;0.50;;
79338;SDS011;74181;41.704;44.786;2024-01-06T03:49:06;1.90;;;0.70;;
79338;SDS011;74181;41.704;44.786;2024-01-06T03:51:32;1.65;;;0.50;;
79338;SDS011;74181;41.704;44.786;2024-01-06T03:53:58;1.40;;;0.40;;
79338;SDS011;74181;41.704;44.786;2024-01-06T03:56:24;2.58;;;0.50;;
79338;SDS011;74181;41.704;44.786;2024-01-06T03:58:50;2.20;;;0.40;;
79338;SDS011;74181;41.704;44.786;2024-01-06T04:01:17;1.35;;;0.40;;
79338;SDS011;74181;41.704;44.786;2024-01-06T04:03:43;1.98;;;0.50;;
79338;SDS011;74181;41.704;44.786;2024-01-06T04:06:09;2.37;;;0.50;;
79338;SDS011;74181;41.704;44.786;2024-01-06T04:08:36;2.00;;;0.60;;
79338;SDS011;74181;41.704;44.786;2024-01-06T04:11:02;1.25;;;0.40;;
79338;SDS011;74181;41.704;44.786;2024-01-06T04:13:28;1.48;;;0.30;;
79338;SDS011;74181;41.704;44.786;2024-01-06T04:15:54;1.40;;;0.50;;
79338;SDS011;74181;41.704;44.786;2024-01-06T04:18:20;1.47;;;0.30;;
79338;SDS011;74181;41.704;44.786;2024-01-06T04:20:47;1.08;;;0.30;;
79338;SDS011;74181;41.704;44.786;2024-01-06T04:23:13;1.55;;;0.30;;
79338;SDS011;74181;41.704;44.786;2024-01-06T04:25:39;1.05;;;0.40;;
79338;SDS011;74181;41.704;44.786;2024-01-06T04:28:05;2.20;;;0.50;;
79338;SDS011;74181;41.704;44.786;2024-01-06T04:30:31;1.70;;;0.50;;
79338;SDS011;74181;41.704;44.786;2024-01-06T04:32:57;2.33;;;0.57;;
79338;SDS011;74181;41.704;44.786;2024-01-06T04:35:23;1.90;;;0.50;;
79338;SDS011;74181;41.704;44.786;2024-01-06T04:37:51;2.65;;;0.60;;
79338;SDS011;74181;41.704;44.786;2024-01-06T04:40:17;2.22;;;0.60;;
79338;SDS011;74181;41.704;44.786;2024-01-06T04:42:43;2.70;;;0.70;;
79338;SDS011;74181;41.704;44.786;2024-01-06T04:45:10;3.60;;;0.70;;
79338;SDS011;74181;41.704;44.786;2024-01-06T04:47:36;1.70;;;0.60;;
79338;SDS011;74181;41.704;44.786;2024-01-06T04:50:02;1.80;;;0.60;;
79338;SDS011;74181;41.704;44.786;2024-01-06T04:52:29;1.75;;;0.60;;
79338;SDS011;74181;41.704;44.786;2024-01-06T04:54:55;2.70;;;0.60;;
79338;SDS011;74181;41.704;44.786;2024-01-06T04:57:21;4.35;;;0.60;;
79338;SDS011;74181;41.704;44.786;2024-01-06T04:59:48;2.47;;;0.57;;
79338;SDS011;74181;41.704;44.786;2024-01-06T05:02:14;1.48;;;0.50;;
79338;SDS011;74181;41.704;44.786;2024-01-06T05:04:41;2.50;;;0.50;;
79338;SDS011;74181;41.704;44.786;2024-01-06T05:07:07;1.63;;;0.50;;
79338;SDS011;74181;41.704;44.786;2024-01-06T05:09:33;1.73;;;0.52;;
79338;SDS011;74181;41.704;44.786;2024-01-06T05:11:59;1.73;;;0.50;;
79338;SDS011;74181;41.704;44.786;2024-01-06T05:14:25;1.52;;;0.50;;
79338;SDS011;74181;41.704;44.786;2024-01-06T05:16:51;1.35;;;0.50;;
79338;SDS011;74181;41.704;44.786;2024-01-06T05:19:17;2.07;;;0.60;;
79338;SDS011;74181;41.704;44.786;2024-01-06T05:21:47;1.80;;;0.50;;
79338;SDS011;74181;41.704;44.786;2024-01-06T05:24:13;3.15;;;0.60;;
79338;SDS011;74181;41.704;44.786;2024-01-06T05:26:41;1.35;;;0.50;;
79338;SDS011;74181;41.704;44.786;2024-01-06T05:29:07;1.50;;;0.50;;
79338;SDS011;74181;41.704;44.786;2024-01-06T05:31:33;1.80;;;0.50;;
79338;SDS011;74181;41.704;44.786;2024-01-06T05:33:59;2.35;;;0.50;;
79338;SDS011;74181;41.704;44.786;2024-01-06T05:36:25;2.33;;;0.70;;
79338;SDS011;74181;41.704;44.786;2024-01-06T05:38:52;2.05;;;0.68;;
79338;SDS011;74181;41.704;44.786;2024-01-06T05:41:18;2.72;;;0.50;;
79338;SDS011;74181;41.704;44.786;2024-01-06T05:43:44;3.83;;;0.60;;
79338;SDS011;74181;41.704;44.786;2024-01-06T05:46:10;1.58;;;0.47;;
79338;SDS011;74181;41.704;44.786;2024-01-06T05:48:37;1.70;;;0.50;;
79338;SDS011;74181;41.704;44.786;2024-01-06T05:51:09;3.47;;;0.70;;
79338;SDS011;74181;41.704;44.786;2024-01-06T05:53:35;1.67;;;0.55;;
79338;SDS011;74181;41.704;44.786;2024-01-06T05:56:01;1.90;;;0.50;;
79338;SDS011;74181;41.704;44.786;2024-01-06T05:58:28;1.85;;;0.50;;
79338;SDS011;74181;41.704;44.786;2024-01-06T06:00:54;1.70;;;0.50;;
79338;SDS011;74181;41.704;44.786;2024-01-06T06:03:20;1.45;;;0.40;;
79338;SDS011;74181;41.704;44.786;2024-01-06T06:05:46;1.42;;;0.50;;
79338;SDS011;74181;41.704;44.786;2024-01-06T06:08:12;2.27;;;0.60;;
79338;SDS011;74181;41.704;44.786;2024-01-06T06:10:39;1.90;;;0.50;;
79338;SDS011;74181;41.704;44.786;2024-01-06T06:13:07;1.58;;;0.50;;
79338;SDS011;74181;41.704;44.786;2024-01-06T06:15:36;2.83;;;0.57;;
79338;SDS011;74181;41.704;44.786;2024-01-06T06:18:02;1.70;;;0.50;;
79338;SDS011;74181;41.704;44.786;2024-01-06T06:20:29;2.07;;;0.63;;
79338;SDS011;74181;41.704;44.786;2024-01-06T06:22:55;2.45;;;0.70;;
79338;SDS011;74181;41.704;44.786;2024-01-06T06:25:21;1.90;;;0.70;;
79338;SDS011;74181;41.704;44.786;2024-01-06T06:27:48;2.08;;;0.70;;
79338;SDS011;74181;41.704;44.786;2024-01-06T06:30:14;1.90;;;0.70;;
79338;SDS011;74181;41.704;44.786;2024-01-06T06:32:40;2.10;;;0.70;;
79338;SDS011;74181;41.704;44.786;2024-01-06T06:35:06;4.05;;;0.70;;
79338;SDS011;74181;41.704;44.786;2024-01-06T06:37:33;4.95;;;0.80;;
79338;SDS011;74181;41.704;44.786;2024-01-06T06:39:59;2.60;;;0.80;;
79338;SDS011;74181;41.704;44.786;2024-01-06T06:42:25;3.08;;;0.90;;
79338;SDS011;74181;41.704;44.786;2024-01-06T06:44:52;3.13;;;0.80;;
79338;SDS011;74181;41.704;44.786;2024-01-06T06:47:18;2.63;;;0.73;;
79338;SDS011;74181;41.704;44.786;2024-01-06T06:49:44;2.17;;;0.73;;
79338;SDS011;74181;41.704;44.786;2024-01-06T06:52:11;2.08;;;0.80;;
79338;SDS011;74181;41.704;44.786;2024-01-06T06:54:38;2.83;;;0.85;;
79338;SDS011;74181;41.704;44.786;2024-01-06T06:57:05;3.40;;;0.80;;
79338;SDS011;74181;41.704;44.786;2024-01-06T06:59:31;2.17;;;0.70;;
79338;SDS011;74181;41.704;44.786;2024-01-06T07:01:57;2.58;;;1.00;;
79338;SDS011;74181;41.704;44.786;2024-01-06T07:04:23;3.28;;;0.80;;
79338;SDS011;74181;41.704;44.786;2024-01-06T07:06:51;2.33;;;0.80;;
79338;SDS011;74181;41.704;44.786;2024-01-06T07:09:18;2.60;;;0.80;;
79338;SDS011;74181;41.704;44.786;2024-01-06T07:11:44;2.08;;;0.70;;
79338;SDS011;74181;41.704;44.786;2024-01-06T07:14:10;3.03;;;0.90;;
79338;SDS011;74181;41.704;44.786;2024-01-06T07:16:36;2.47;;;0.80;;
79338;SDS011;74181;41.704;44.786;2024-01-06T07:19:02;2.80;;;1.00;;
79338;SDS011;74181;41.704;44.786;2024-01-06T07:21:28;2.23;;;0.80;;
79338;SDS011;74181;41.704;44.786;2024-01-06T07:23:55;2.40;;;0.70;;
79338;SDS011;74181;41.704;44.786;2024-01-06T07:26:21;1.98;;;0.75;;
79338;SDS011;74181;41.704;44.786;2024-01-06T07:28:47;2.47;;;0.60;;
79338;SDS011;74181;41.704;44.786;2024-01-06T07:31:14;3.10;;;1.00;;
79338;SDS011;74181;41.704;44.786;2024-01-06T07:33:40;2.53;;;0.90;;
79338;SDS011;74181;41.704;44.786;2024-01-06T07:36:06;2.35;;;0.77;;
79338;SDS011;74181;41.704;44.786;2024-01-06T07:38:33;1.90;;;0.60;;
79338;SDS011;74181;41.704;44.786;2024-01-06T07:40:59;1.90;;;0.70;;
79338;SDS011;74181;41.704;44.786;2024-01-06T07:43:25;2.75;;;1.13;;
79338;SDS011;74181;41.704;44.786;2024-01-06T07:45:51;2.30;;;0.80;;
79338;SDS011;74181;41.704;44.786;2024-01-06T07:48:18;4.18;;;1.42;;
79338;SDS011;74181;41.704;44.786;2024-01-06T07:50:44;2.50;;;0.90;;
79338;SDS011;74181;41.704;44.786;2024-01-06T07:53:11;2.80;;;1.02;;
79338;SDS011;74181;41.704;44.786;2024-01-06T07:55:39;2.47;;;0.70;;
79338;SDS011;74181;41.704;44.786;2024-01-06T07:58:06;2.60;;;0.87;;
79338;SDS011;74181;41.704;44.786;2024-01-06T08:00:32;3.58;;;1.35;;
79338;SDS011;74181;41.704;44.786;2024-01-06T08:02:58;2.92;;;0.75;;
79338;SDS011;74181;41.704;44.786;2024-01-06T08:05:26;2.30;;;0.70;;
79338;SDS011;74181;41.704;44.786;2024-01-06T08:07:52;2.15;;;0.73;;
79338;SDS011;74181;41.704;44.786;2024-01-06T08:10:18;2.50;;;0.80;;
79338;SDS011;74181;41.704;44.786;2024-01-06T08:12:44;3.60;;;0.95;;
79338;SDS011;74181;41.704;44.786;2024-01-06T08:15:10;2.03;;;0.70;;
79338;SDS011;74181;41.704;44.786;2024-01-06T08:17:37;2.85;;;1.00;;
79338;SDS011;74181;41.704;44.786;2024-01-06T08:20:04;2.88;;;0.70;;
79338;SDS011;74181;41.704;44.786;2024-01-06T08:22:30;4.53;;;2.27;;
79338;SDS011;74181;41.704;44.786;2024-01-06T08:24:56;3.42;;;0.90;;
79338;SDS011;74181;41.704;44.786;2024-01-06T08:27:22;3.25;;;0.90;;
79338;SDS011;74181;41.704;44.786;2024-01-06T08:29:49;2.38;;;0.70;;
79338;SDS011;74181;41.704;44.786;2024-01-06T08:32:15;2.53;;;0.70;;
79338;SDS011;74181;41.704;44.786;2024-01-06T08:34:42;2.30;;;0.90;;
79338;SDS011;74181;41.704;44.786;2024-01-06T08:37:08;3.95;;;1.10;;
79338;SDS011;74181;41.704;44.786;2024-01-06T08:39:34;4.63;;;1.33;;
79338;SDS011;74181;41.704;44.786;2024-01-06T08:42:00;2.78;;;0.80;;
79338;SDS011;74181;41.704;44.786;2024-01-06T08:44:26;3.30;;;0.95;;
79338;SDS011;74181;41.704;44.786;2024-01-06T08:46:53;2.17;;;0.80;;
79338;SDS011;74181;41.704;44.786;2024-01-06T08:49:19;2.78;;;0.63;;
79338;SDS011;74181;41.704;44.786;2024-01-06T08:51:45;3.35;;;1.08;;
79338;SDS011;74181;41.704;44.786;2024-01-06T08:54:11;2.20;;;0.70;;
79338;SDS011;74181;41.704;44.786;2024-01-06T08:56:37;3.10;;;0.70;;
79338;SDS011;74181;41.704;44.786;2024-01-06T08:59:04;5.30;;;1.97;;
79338;SDS011;74181;41.704;44.786;2024-01-06T09:01:30;2.72;;;1.00;;
79338;SDS011;74181;41.704;44.786;2024-01-06T09:03:57;4.00;;;1.08;;
79338;SDS011;74181;41.704;44.786;2024-01-06T09:06:23;3.72;;;1.00;;
79338;SDS011;74181;41.704;44.786;2024-01-06T09:08:49;3.67;;;1.40;;
79338;SDS011;74181;41.704;44.786;2024-01-06T09:11:15;3.73;;;0.80;;
79338;SDS011;74181;41.704;44.786;2024-01-06T09:13:41;2.30;;;0.80;;
79338;SDS011;74181;41.704;44.786;2024-01-06T09:16:08;3.00;;;1.00;;
79338;SDS011;74181;41.704;44.786;2024-01-06T09:18:34;3.05;;;1.00;;
79338;SDS011;74181;41.704;44.786;2024-01-06T09:21:00;3.03;;;0.80;;
79338;SDS011;74181;41.704;44.786;2024-01-06T09:23:26;3.27;;;0.90;;
79338;SDS011;74181;41.704;44.786;2024-01-06T09:25:52;2.53;;;0.80;;
79338;SDS011;74181;41.704;44.786;2024-01-06T09:28:18;2.63;;;0.80;;
79338;SDS011;74181;41.704;44.786;2024-01-06T09:30:46;4.18;;;1.10;;
79338;SDS011;74181;41.704;44.786;2024-01-06T09:33:13;2.78;;;1.10;;
79338;SDS011;74181;41.704;44.786;2024-01-06T09:35:41;4.63;;;1.00;;
79338;SDS011;74181;41.704;44.786;2024-01-06T09:38:08;5.20;;;1.33;;
79338;SDS011;74181;41.704;44.786;2024-01-06T09:40:35;2.08;;;0.80;;
79338;SDS011;74181;41.704;44.786;2024-01-06T09:43:06;3.40;;;1.20;;
79338;SDS011;74181;41.704;44.786;2024-01-06T09:45:33;2.95;;;1.27;;
79338;SDS011;74181;41.704;44.786;2024-01-06T09:47:59;3.10;;;0.93;;
79338;SDS011;74181;41.704;44.786;2024-01-06T09:50:40;4.00;;;1.27;;
79338;SDS011;74181;41.704;44.786;2024-01-06T09:53:08;3.72;;;1.02;;
79338;SDS011;74181;41.704;44.786;2024-01-06T09:55:36;3.35;;;1.30;;
79338;SDS011;74181;41.704;44.786;2024-01-06T09:58:04;4.35;;;1.50;;
79338;SDS011;74181;41.704;44.786;2024-01-06T10:00:31;2.67;;;0.83;;
79338;SDS011;74181;41.704;44.786;2024-01-06T10:02:58;3.40;;;1.00;;
79338;SDS011;74181;41.704;44.786;2024-01-06T10:05:24;3.83;;;1.30;;
79338;SDS011;74181;41.704;44.786;2024-01-06T10:07:50;2.72;;;1.10;;
79338;SDS011;74181;41.704;44.786;2024-01-06T10:10:16;2.90;;;1.10;;
79338;SDS011;74181;41.704;44.786;2024-01-06T10:12:44;2.00;;;0.70;;
79338;SDS011;74181;41.704;44.786;2024-01-06T10:15:14;3.65;;;1.52;;
79338;SDS011;74181;41.704;44.786;2024-01-06T10:17:40;5.15;;;1.20;;
79338;SDS011;74181;41.704;44.786;2024-01-06T10:20:11;3.28;;;0.90;;
79338;SDS011;74181;41.704;44.786;2024-01-06T10:22:40;2.20;;;0.90;;
79338;SDS011;74181;41.704;44.786;2024-01-06T10:25:10;2.50;;;0.90;;
79338;SDS011;74181;41.704;44.786;2024-01-06T10:27:41;2.47;;;0.80;;
79338;SDS011;74181;41.704;44.786;2024-01-06T10:30:10;4.47;;;1.25;;
79338;SDS011;74181;41.704;44.786;2024-01-06T10:32:39;3.40;;;0.90;;
79338;SDS011;74181;41.704;44.786;2024-01-06T10:35:06;2.88;;;1.00;;
79338;SDS011;74181;41.704;44.786;2024-01-06T10:37:33;2.60;;;1.00;;
79338;SDS011;74181;41.704;44.786;2024-01-06T10:42:39;3.53;;;1.00;;
79338;SDS011;74181;41.704;44.786;2024-01-06T10:45:08;5.70;;;2.20;;
79338;SDS011;74181;41.704;44.786;2024-01-06T10:47:36;4.13;;;1.33;;
79338;SDS011;74181;41.704;44.786;2024-01-06T10:50:03;4.37;;;1.20;;
79338;SDS011;74181;41.704;44.786;2024-01-06T10:52:30;2.60;;;1.00;;
79338;SDS011;74181;41.704;44.786;2024-01-06T10:54:57;2.97;;;1.20;;
79338;SDS011;74181;41.704;44.786;2024-01-06T10:57:24;4.05;;;1.92;;
79338;SDS011;74181;41.704;44.786;2024-01-06T10:59:53;3.17;;;1.20;;
79338;SDS011;74181;41.704;44.786;2024-01-06T11:02:20;3.03;;;0.83;;
79338;SDS011;74181;41.704;44.786;2024-01-06T11:04:47;3.95;;;2.15;;
79338;SDS011;74181;41.704;44.786;2024-01-06T11:07:16;5.55;;;2.10;;
79338;SDS011;74181;41.704;44.786;2024-01-06T11:09:52;3.17;;;1.42;;
79338;SDS011;74181;41.704;44.786;2024-01-06T11:12:21;3.15;;;1.42;;
79338;SDS011;74181;41.704;44.786;2024-01-06T11:14:47;3.03;;;1.00;;
79338;SDS011;74181;41.704;44.786;2024-01-06T11:17:19;3.95;;;1.00;;
79338;SDS011;74181;41.704;44.786;2024-01-06T11:20:24;3.28;;;1.00;;
79338;SDS011;74181;41.704;44.786;2024-01-06T11:22:52;2.78;;;1.00;;
79338;SDS011;74181;41.704;44.786;2024-01-06T11:25:19;3.20;;;1.10;;
79338;SDS011;74181;41.704;44.786;2024-01-06T11:27:47;2.73;;;0.90;;
79338;SDS011;74181;41.704;44.786;2024-01-06T11:30:24;3.03;;;1.00;;
79338;SDS011;74181;41.704;44.786;2024-01-06T11:32:52;3.92;;;1.05;;
79338;SDS011;74181;41.704;44.786;2024-01-06T11:35:22;3.20;;;0.98;;
79338;SDS011;74181;41.704;44.786;2024-01-06T11:43:11;2.50;;;1.00;;
79338;SDS011;74181;41.704;44.786;2024-01-06T11:45:38;5.05;;;1.60;;
79338;SDS011;74181;41.704;44.786;2024-01-06T11:48:10;3.60;;;1.20;;
79338;SDS011;74181;41.704;44.786;2024-01-06T11:50:40;3.63;;;0.95;;
79338;SDS011;74181;41.704;44.786;2024-01-06T11:53:07;3.63;;;0.90;;
79338;SDS011;74181;41.704;44.786;2024-01-06T11:55:35;2.45;;;1.00;;
79338;SDS011;74181;41.704;44.786;2024-01-06T11:58:04;3.75;;;1.10;;
79338;SDS011;74181;41.704;44.786;2024-01-06T12:00:32;3.95;;;1.20;;
79338;SDS011;74181;41.704;44.786;2024-01-06T12:02:59;3.10;;;1.23;;
79338;SDS011;74181;41.704;44.786;2024-01-06T12:05:32;2.90;;;1.00;;
79338;SDS011;74181;41.704;44.786;2024-01-06T12:07:59;2.95;;;1.00;;
79338;SDS011;74181;41.704;44.786;2024-01-06T12:10:28;3.28;;;1.10;;
79338;SDS011;74181;41.704;44.786;2024-01-06T12:12:59;2.92;;;1.20;;
79338;SDS011;74181;41.704;44.786;2024-01-06T12:15:29;4.00;;;1.40;;
79338;SDS011;74181;41.704;44.786;2024-01-06T12:17:57;2.47;;;0.90;;
79338;SDS011;74181;41.704;44.786;2024-01-06T12:20:25;2.30;;;0.90;;
79338;SDS011;74181;41.704;44.786;2024-01-06T12:22:52;3.15;;;1.00;;
79338;SDS011;74181;41.704;44.786;2024-01-06T12:25:22;3.30;;;1.10;;
79338;SDS011;74181;41.704;44.786;2024-01-06T12:27:51;3.75;;;1.08;;
79338;SDS011;74181;41.704;44.786;2024-01-06T12:30:19;3.63;;;1.03;;
79338;SDS011;74181;41.704;44.786;2024-01-06T12:32:47;2.95;;;1.40;;
79338;SDS011;74181;41.704;44.786;2024-01-06T12:35:15;3.17;;;1.10;;
79338;SDS011;74181;41.704;44.786;2024-01-06T12:37:42;3.03;;;1.20;;
79338;SDS011;74181;41.704;44.786;2024-01-06T12:40:10;4.30;;;1.20;;
79338;SDS011;74181;41.704;44.786;2024-01-06T12:42:41;3.20;;;1.20;;
79338;SDS011;74181;41.704;44.786;2024-01-06T12:45:07;2.83;;;1.40;;
79338;SDS011;74181;41.704;44.786;2024-01-06T12:47:39;3.80;;;1.27;;
79338;SDS011;74181;41.704;44.786;2024-01-06T12:50:12;3.85;;;1.88;;
79338;SDS011;74181;41.704;44.786;2024-01-06T12:52:38;3.08;;;1.10;;
79338;SDS011;74181;41.704;44.786;2024-01-06T12:55:05;2.60;;;1.10;;
79338;SDS011;74181;41.704;44.786;2024-01-06T12:57:32;3.78;;;1.35;;
79338;SDS011;74181;41.704;44.786;2024-01-06T12:59:59;2.80;;;1.23;;
79338;SDS011;74181;41.704;44.786;2024-01-06T13:02:25;4.43;;;1.38;;
79338;SDS011;74181;41.704;44.786;2024-01-06T13:04:51;5.10;;;2.40;;
79338;SDS011;74181;41.704;44.786;2024-01-06T13:07:18;5.63;;;1.40;;
79338;SDS011;74181;41.704;44.786;2024-01-06T13:09:45;3.70;;;1.55;;
79338;SDS011;74181;41.704;44.786;2024-01-06T13:12:11;3.78;;;1.20;;
79338;SDS011;74181;41.704;44.786;2024-01-06T13:14:37;4.10;;;1.80;;
79338;SDS011;74181;41.704;44.786;2024-01-06T13:17:04;3.25;;;1.50;;
79338;SDS011;74181;41.704;44.786;2024-01-06T13:19:35;4.03;;;1.40;;
79338;SDS011;74181;41.704;44.786;2024-01-06T13:22:13;3.08;;;1.30;;
79338;SDS011;74181;41.704;44.786;2024-01-06T13:24:40;3.75;;;1.50;;
79338;SDS011;74181;41.704;44.786;2024-01-06T13:27:07;4.38;;;1.50;;
79338;SDS011;74181;41.704;44.786;2024-01-06T13:29:34;4.65;;;1.60;;
79338;SDS011;74181;41.704;44.786;2024-01-06T13:32:00;3.83;;;1.20;;
79338;SDS011;74181;41.704;44.786;2024-01-06T13:34:26;3.83;;;1.42;;
79338;SDS011;74181;41.704;44.786;2024-01-06T13:36:55;4.32;;;1.70;;
79338;SDS011;74181;41.704;44.786;2024-01-06T13:39:23;5.80;;;1.73;;
79338;SDS011;74181;41.704;44.786;2024-01-06T13:41:49;3.40;;;1.77;;
79338;SDS011;74181;41.704;44.786;2024-01-06T13:44:16;9.03;;;2.00;;
79338;SDS011;74181;41.704;44.786;2024-01-06T13:46:45;3.75;;;1.58;;
79338;SDS011;74181;41.704;44.786;2024-01-06T13:49:13;6.68;;;2.20;;
79338;SDS011;74181;41.704;44.786;2024-01-06T13:51:40;5.05;;;2.10;;
79338;SDS011;74181;41.704;44.786;2024-01-06T13:54:06;4.88;;;1.95;;
79338;SDS011;74181;41.704;44.786;2024-01-06T13:56:32;4.00;;;1.80;;
79338;SDS011;74181;41.704;44.786;2024-01-06T13:58:58;5.03;;;1.60;;
79338;SDS011;74181;41.704;44.786;2024-01-06T14:01:24;5.57;;;1.90;;
79338;SDS011;74181;41.704;44.786;2024-01-06T14:03:51;4.40;;;1.90;;
79338;SDS011;74181;41.704;44.786;2024-01-06T14:06:24;4.03;;;1.83;;
79338;SDS011;74181;41.704;44.786;2024-01-06T14:08:51;8.60;;;2.93;;
79338;SDS011;74181;41.704;44.786;2024-01-06T14:11:18;6.28;;;2.15;;
79338;SDS011;74181;41.704;44.786;2024-01-06T14:13:44;4.93;;;2.00;;
79338;SDS011;74181;41.704;44.786;2024-01-06T14:16:14;4.97;;;2.20;;
79338;SDS011;74181;41.704;44.786;2024-01-06T14:18:41;5.45;;;2.10;;
79338;SDS011;74181;41.704;44.786;2024-01-06T14:21:10;3.87;;;1.70;;
79338;SDS011;74181;41.704;44.786;2024-01-06T14:23:41;4.07;;;1.70;;
79338;SDS011;74181;41.704;44.786;2024-01-06T14:26:07;3.50;;;1.65;;
79338;SDS011;74181;41.704;44.786;2024-01-06T14:28:33;3.58;;;1.70;;
79338;SDS011;74181;41.704;44.786;2024-01-06T14:30:59;4.82;;;1.70;;
79338;SDS011;74181;41.704;44.786;2024-01-06T14:33:26;3.80;;;1.63;;
79338;SDS011;74181;41.704;44.786;2024-01-06T14:35:52;4.00;;;1.80;;
79338;SDS011;74181;41.704;44.786;2024-01-06T14:38:19;3.90;;;2.17;;
79338;SDS011;74181;41.704;44.786;2024-01-06T14:40:45;4.75;;;2.30;;